TOURFACTS.DK  
Stats and Facts from Tour de France.

Tour de France 2019 starts in 320 days
  Riders   Stages   Teams   Summits   Yearly  


 
Search by year

After 2018 - Stage 21:
 15000 starters.
  5165 different riders.
  638 teams.
  2253 stages.
  456 restdays.
  442940.60 km.
  5684 abandonnees.


Top 3
GC
Geraint Thomas83:17:13
Tom Dumoulin83:19:04
Christopher Froome83:19:37
Climb
Julian Alaphilippe170 pt.
Warren Barguil91 pt.
Rafal Majka76 pt.
Sprint
Peter Sagan477 pt.
Alexander Kristoff246 pt.
Arnaud Démare203 pt.
Youth
Pierre-Roger Latou..83:39:26
Egan Bernal83:45:05
Guillaume Martin84:01:31
Facts from Tour de France 2016
  |   Stages.  |   Stage winners.  |   Days in yellow  |   Average speed.  |   Route.  |   Teams.  |   All riders.  |   Rookies.  |  

  |   Withdrawls.  |   GC.  |   Polka  |   Green  |   White  |   Summits. (In tour)  |   Miscellaneous.  |  

Stage 9 on 10 - 07 - 2016
         Owning:    Christopher Froome      Thibaut Pinot      Mark Cavendish      Adam Yates  

Pick a stage:  1 2 3 4 5 6 7 8 9 10 11 12 13 14 15 16 17 18 19 20 21
  Vielha Val d'AranAndorre Arcalis | Dist: 184.00 km.
Cat: 1Puerto de la BonaiguaFRAThibaut Pinot10 points 
Cat: 1Puerto de CantoBELThomas De Gendt10 points 
Cat: 2Côte de la ComellaBELThomas De Gendt5 points 
Cat: 1Col de BeixalisFRAThibaut Pinot10 points 
Cat: HAndorre ArcalisNEDTom Dumoulin50 points 

Average speed for all riders in stage:  32,346 km./hr.
    Place:Name:Team:Time:Km/h:
1
NEDTom DumoulinDEUTeam Giant Alpecin05:16:24  +  00:00:00=34,893 
2
PORRui CostaITALampre-Merida05:17:02  +  00:00:38=34,823 
3
POLRafal MajkaRUSTinkoff05:17:02  +  00:00:38=34,823 
44 ESPDaniel NavarroFRACofidis – Solutions Crédits05:18:03  +  00:01:39=34,712 
55 COLWinner AnaconaESPMovistar Team05:18:21  +  00:01:57=34,679 
66 FRAThibaut PinotFRAFDJ05:18:54  +  00:02:30=34,619 
77 NZLGeorge BennettNLDTeam Lotto NL - Jumbo05:19:12  +  00:02:48=34,586 
88 ITADiego RosaKAZAstana Pro Team05:19:16  +  00:02:52=34,579 
99 SUIMathias FrankCHEIAM Cycling05:20:08  +  00:03:44=34,486 
1010 ENGAdam YatesAUSORICA BikeExchange05:22:59  +  00:06:35=34,181 
1111 KENChristopher FroomeGBRSky Procycling05:22:59  +  00:06:35=34,181 
1212 COLNairo QuintanaESPMovistar Team05:22:59  +  00:06:35=34,181 
1313 AUSRichie PorteUSABMC Racing Team05:23:01  +  00:06:37=34,178 
1414 ENGDaniel MartinBELEtixx - Quick Step05:23:01  +  00:06:37=34,178 
1515 ESPJesus HerradaESPMovistar Team05:23:01  +  00:06:37=34,178 
1616 COLSergio Luis HenaoGBRSky Procycling05:23:20  +  00:06:56=34,144 
1717 FRARomain BardetFRAAg2r La Mondiale05:23:20  +  00:06:56=34,144 
1818 NEDBauke MollemaUSATrek - Segafredo05:23:20  +  00:06:56=34,144 
1919 RSALouis MeintjesITALampre-Merida05:23:20  +  00:06:56=34,144 
2020 ESPJoaquim RodriguezRUSTeam Katusha05:23:20  +  00:06:56=34,144 
2121 USATejay Van GarderenUSABMC Racing Team05:23:37  +  00:07:13=34,114 
2222 CZERoman KreuzigerRUSTinkoff05:23:41  +  00:07:17=34,107 
2223 FRAPierre RollandUSATeam Cannondale Drapac05:25:05  +  00:08:41=33,961 
2324 ESPAlejandro ValverdeESPMovistar Team05:23:41  +  00:07:17=34,107 
2425 FRAAlexis VuillermozFRAAg2r La Mondiale05:23:41  +  00:07:17=34,107 
2526 WALGeraint ThomasGBRSky Procycling05:23:48  +  00:07:24=34,095 
2627 ITAVincenzo NibaliKAZAstana Pro Team05:23:59  +  00:07:35=34,076 
2728 ITAFabio AruKAZAstana Pro Team05:23:59  +  00:07:35=34,076 
2829 FRAWarren BarguilDEUTeam Giant Alpecin05:23:59  +  00:07:35=34,076 
2930 ERINatnael Teweldemedhin BerhaneZAFDimension Data05:24:51  +  00:08:27=33,985 
3031 LUXFränk SchleckUSATrek - Segafredo05:25:05  +  00:08:41=33,961 
3132 SUISébastien ReichenbachFRAFDJ05:25:05  +  00:08:41=33,961 
3333 BELThomas De GendtBELLotto Soudal05:25:14  +  00:08:50=33,945 
3434 ESPMikel NieveGBRSky Procycling05:25:54  +  00:09:30=33,875 
3535 ITADamiano CarusoUSABMC Racing Team05:26:05  +  00:09:41=33,856 
3636 NEDStef ClementCHEIAM Cycling05:26:08  +  00:09:44=33,851 
3737 GEREmanuel BuchmannDEUBora-Argon 1805:26:11  +  00:09:47=33,846 
3838 BELJurgen Van Den BroeckRUSTeam Katusha05:26:32  +  00:10:08=33,810 
3939 NEDWilco KeldermanNLDTeam Lotto NL - Jumbo05:26:32  +  00:10:08=33,810 
4040 BELJan BakelantsFRAAg2r La Mondiale05:26:42  +  00:10:18=33,792 
4141 BELSerge PauwelsZAFDimension Data05:27:15  +  00:10:51=33,736 
4242 ESPLuis León SánchezKAZAstana Pro Team05:29:17  +  00:12:53=33,527 
4343 URSTanel KangertKAZAstana Pro Team05:29:30  +  00:13:06=33,505 
4444 SUISteve MorabitoFRAFDJ05:30:14  +  00:13:50=33,431 
4545 ESPHaimar ZubeldiaUSATrek - Segafredo05:30:14  +  00:13:50=33,431 
4646 ARGEduardo SepulvedaFRAFortuneo - Vital Concept05:30:23  +  00:13:59=33,416 
4747 NEDWout PoelsGBRSky Procycling05:30:25  +  00:14:01=33,412 
4848 ESPDaniel MorenoESPMovistar Team05:31:33  +  00:15:09=33,298 
4949 RSADaryl ImpeyAUSORICA BikeExchange05:32:00  +  00:15:36=33,253 
5050 ESPRubén PlazaAUSORICA BikeExchange05:32:00  +  00:15:36=33,253 
5151 POLBartosz HuzarskiDEUBora-Argon 1805:32:19  +  00:15:55=33,221 
5252 FRANicolas EdetFRACofidis – Solutions Crédits05:33:57  +  00:17:33=33,059 
5353 FRAJérôme CoppelCHEIAM Cycling05:34:06  +  00:17:42=33,044 
5454 ETHTsgabu Gebremaryan GrmayITALampre-Merida05:35:27  +  00:19:03=32,911 
5555 ESPMikel Landa MeanaGBRSky Procycling05:35:27  +  00:19:03=32,911 
5656 NEDLaurens ten DamDEUTeam Giant Alpecin05:35:35  +  00:19:11=32,898 
5757 FRAArthur VichotFRAFDJ05:37:03  +  00:20:39=32,755 
5858 ITADomenico PozzovivoFRAAg2r La Mondiale05:23:20  +  00:06:56=34,144 
5959 LUXBen GastauerFRAAg2r La Mondiale05:23:20  +  00:06:56=34,144 
6060 FRASylvain ChavanelFRADirect Energie05:23:20  +  00:06:56=34,144 
6161 SVKPeter SaganRUSTinkoff05:23:20  +  00:06:56=34,144 
6262 USAPeter StetinaUSATrek - Segafredo05:37:38  +  00:21:14=32,698 
6363 AUTGeorg PreidlerDEUTeam Giant Alpecin05:37:38  +  00:21:14=32,698 
6464 RUSIlnur ZakarinRUSTeam Katusha05:37:38  +  00:21:14=32,698 
6565 FRAAmaël MoinardUSABMC Racing Team05:37:38  +  00:21:14=32,698 
6666 SLOJan PolancITALampre-Merida05:37:38  +  00:21:14=32,698 
6767 FRAJulian AlaphilippeBELEtixx - Quick Step05:37:38  +  00:21:14=32,698 
6868 AUSAdam HansenBELLotto Soudal05:37:38  +  00:21:14=32,698 
6969 FRATony GallopinBELLotto Soudal05:37:38  +  00:21:14=32,698 
7070 GERSimon GeschkeDEUTeam Giant Alpecin05:38:31  +  00:22:07=32,613 
7171 FRAArnold JeannessonFRACofidis – Solutions Crédits05:38:43  +  00:22:19=32,594 
7272 KAZAlexey LutsenkoKAZAstana Pro Team05:38:43  +  00:22:19=32,594 
7373 FRAAnthony RouxFRAFDJ05:38:43  +  00:22:19=32,594 
7474 USALawson CraddockUSATeam Cannondale Drapac05:38:43  +  00:22:19=32,594 
7575 DENChris Anker SørensenFRAFortuneo - Vital Concept05:39:22  +  00:22:58=32,531 
7676 FRAFabrice JeandesbozFRADirect Energie05:39:22  +  00:22:58=32,531 
7777 FRAJérémy RoyFRAFDJ05:39:48  +  00:23:24=32,490 
7878 FRARomain SicardFRADirect Energie05:40:34  +  00:24:10=32,417 
7979 FRABrice FeilluFRAFortuneo - Vital Concept05:42:12  +  00:25:48=32,262 
8080 HRVRobert KiserlovskiRUSTinkoff05:42:12  +  00:25:48=32,262 
8181 HRVKristijan DurasekITALampre-Merida05:42:12  +  00:25:48=32,262 
8282 SUIJakob FuglsangKAZAstana Pro Team05:44:40  +  00:28:16=32,031 
8383 ITAPaolo TiralongoKAZAstana Pro Team05:44:40  +  00:28:16=32,031 
8484 DENMichael ValgrenRUSTinkoff05:44:40  +  00:28:16=32,031 
8585 UKRAndriy GrivkoKAZAstana Pro Team05:44:40  +  00:28:16=32,031 
8686 FRACyril GautierFRAAg2r La Mondiale05:44:40  +  00:28:16=32,031 
8787 FRAAnthony DelaplaceFRAFortuneo - Vital Concept05:44:40  +  00:28:16=32,031 
8888 SLOLuka PibernikITALampre-Merida05:44:40  +  00:28:16=32,031 
8989 ESPAlberto LosadaRUSTeam Katusha05:46:07  +  00:29:43=31,897 
9090 ESPÁngel ViciosoRUSTeam Katusha05:46:07  +  00:29:43=31,897 
9191 FRAAngelo TulikFRADirect Energie05:46:07  +  00:29:43=31,897 
9292 FRABryan CoquardFRADirect Energie05:46:07  +  00:29:43=31,897 
9393 CZEPetr VakocBELEtixx - Quick Step05:46:07  +  00:29:43=31,897 
9494 BELOliver NaesenCHEIAM Cycling05:47:34  +  00:31:10=31,764 
9595 NEDRoy CurversDEUTeam Giant Alpecin05:47:34  +  00:31:10=31,764 
9696 AUSSimon GerransAUSORICA BikeExchange05:47:34  +  00:31:10=31,764 
9797 SUIMichael SchärUSABMC Racing Team05:47:34  +  00:31:10=31,764 
9898 ESPLuis Angel MateFRACofidis – Solutions Crédits05:47:34  +  00:31:10=31,764 
9999 NEDDylan Van BaarleUSATeam Cannondale Drapac05:47:34  +  00:31:10=31,764 
100100 NEDTom-Jelte SlagterUSATeam Cannondale Drapac05:47:34  +  00:31:10=31,764 
101101 CANAntoine DuchesneFRADirect Energie05:47:34  +  00:31:10=31,764 
102102 GERMarcus BurghardtUSABMC Racing Team05:47:34  +  00:31:10=31,764 
103103 AUTPatrick KonradDEUBora-Argon 1805:47:34  +  00:31:10=31,764 
104104 GERAndreas SchillingerDEUBora-Argon 1805:47:34  +  00:31:10=31,764 
105105 ITACesare BenedettiDEUBora-Argon 1805:47:34  +  00:31:10=31,764 
106106 CZEJan BártaDEUBora-Argon 1805:47:34  +  00:31:10=31,764 
107107 USAAlex HowesUSATeam Cannondale Drapac05:48:12  +  00:31:48=31,706 
108108 USABrent BookwalterUSABMC Racing Team05:48:12  +  00:31:48=31,706 
109109 FRAArmindo FonsecaFRAFortuneo - Vital Concept05:48:12  +  00:31:48=31,706 
110110 FRAFlorian VachonFRAFortuneo - Vital Concept05:48:12  +  00:31:48=31,706 
111111 JPNYukiya ArashiroITALampre-Merida05:48:12  +  00:31:48=31,706 
112112 FRAJérôme CousinFRACofidis – Solutions Crédits05:48:12  +  00:31:48=31,706 
113113 COLJarlinson Pantano GomezCHEIAM Cycling05:48:27  +  00:32:03=31,683 
114114 AUSMathew HaymanAUSORICA BikeExchange05:48:27  +  00:32:03=31,683 
115115 AUSLuke DurbridgeAUSORICA BikeExchange05:48:27  +  00:32:03=31,683 
116116 FRAPierre-Luc PérichonFRAFortuneo - Vital Concept05:48:46  +  00:32:22=31,654 
117117 GERPaul VossDEUBora-Argon 1805:49:05  +  00:32:41=31,626 
118118 FRACyril LemoineFRACofidis – Solutions Crédits05:51:50  +  00:35:26=31,378 
119119 FRAWilliam BonnetFRAFDJ05:51:50  +  00:35:26=31,378 
120120 BELSep VanmarckeNLDTeam Lotto NL - Jumbo05:51:50  +  00:35:26=31,378 
121121 FRAYohann GèneFRADirect Energie05:51:50  +  00:35:26=31,378 
122122 ITAFabio SabatiniBELEtixx - Quick Step05:51:50  +  00:35:26=31,378 
123123 NEDBert-Jan LindemanNLDTeam Lotto NL - Jumbo05:51:50  +  00:35:26=31,378 
124124 WALLuke RoweGBRSky Procycling05:51:50  +  00:35:26=31,378 
125125 NEDDylan GroenewegenNLDTeam Lotto NL - Jumbo05:51:50  +  00:35:26=31,378 
126126 GERRobert WagnerNLDTeam Lotto NL - Jumbo05:51:50  +  00:35:26=31,378 
127127 AUSMichael MatthewsAUSORICA BikeExchange05:51:50  +  00:35:26=31,378 
128128 ITAOscar GattoRUSTinkoff05:51:50  +  00:35:26=31,378 
129129 AUSRohan DennisUSABMC Racing Team05:51:50  +  00:35:26=31,378 
130130 SUIFabian CancellaraUSATrek - Segafredo05:51:50  +  00:35:26=31,378 
131131 ENGIan StannardGBRSky Procycling05:51:50  +  00:35:26=31,378 
132132 SUIReto HollensteinCHEIAM Cycling05:51:50  +  00:35:26=31,378 
133133 GERMarcel KittelBELEtixx - Quick Step05:51:50  +  00:35:26=31,378 
134134 PORNelson OliveiraESPMovistar Team05:51:50  +  00:35:26=31,378 
135135 NEDRamon SinkeldamDEUTeam Giant Alpecin05:51:50  +  00:35:26=31,378 
136136 FRAMickaël CherelFRAAg2r La Mondiale05:51:50  +  00:35:26=31,378 
137137 DENMatti BreschelUSATeam Cannondale Drapac05:51:50  +  00:35:26=31,378 
138138 ESPMarkel IrizarUSATrek - Segafredo05:51:50  +  00:35:26=31,378 
139139 FRAGeoffrey SoupeFRACofidis – Solutions Crédits05:51:50  +  00:35:26=31,378 
140140 ESPImanol ErvitiESPMovistar Team05:51:50  +  00:35:26=31,378 
141141 FRAAdrien PetitFRADirect Energie05:51:50  +  00:35:26=31,378 
142142 IRLChristopher Juul JensenAUSORICA BikeExchange05:51:50  +  00:35:26=31,378 
143143 BELEdward TheunsUSATrek - Segafredo05:51:50  +  00:35:26=31,378 
144144 ERIDaniel TeklehaimanotZAFDimension Data05:51:50  +  00:35:26=31,378 
145145 FRAThomas VoecklerFRADirect Energie05:51:50  +  00:35:26=31,378 
146146 NEDTimo RoosenNLDTeam Lotto NL - Jumbo05:51:50  +  00:35:26=31,378 
147147 GERTony MartinBELEtixx - Quick Step05:51:50  +  00:35:26=31,378 
148148 RSAReinardt Janse Van RensburgZAFDimension Data05:51:50  +  00:35:26=31,378 
149149 SLOKristjan KorenUSATeam Cannondale Drapac05:51:50  +  00:35:26=31,378 
150150 BELJens DebusschereBELLotto Soudal05:51:50  +  00:35:26=31,378 
151151 POLMaciej BodnarRUSTinkoff05:51:50  +  00:35:26=31,378 
152152 BELJürgen RoelandtsBELLotto Soudal05:51:50  +  00:35:26=31,378 
153153 NEDSebastian LangeveldUSATeam Cannondale Drapac05:51:50  +  00:35:26=31,378 
154154 SUIGregory RastUSATrek - Segafredo05:51:50  +  00:35:26=31,378 
155155 BELMaarten WynantsNLDTeam Lotto NL - Jumbo05:51:50  +  00:35:26=31,378 
156156 ESPJon Izaguirre InsaustiESPMovistar Team05:51:50  +  00:35:26=31,378 
157157 ESPGorka Izaguirre InsaustiESPMovistar Team05:51:50  +  00:35:26=31,378 
158158 URSRamunas NavardauskasUSATeam Cannondale Drapac05:51:50  +  00:35:26=31,378 
159159 SLOBorut BozicFRACofidis – Solutions Crédits05:51:50  +  00:35:26=31,378 
160160 NEDAlbert TimmerDEUTeam Giant Alpecin05:51:50  +  00:35:26=31,378 
161161 FRA Alexis GougeardFRAAg2r La Mondiale05:51:50  +  00:35:26=31,378 
162162 SUIMartin ElmigerCHEIAM Cycling05:51:50  +  00:35:26=31,378 
163163 ITAMatteo BonoITALampre-Merida05:51:50  +  00:35:26=31,378 
164164 BLRVasil KiryienkaGBRSky Procycling05:51:50  +  00:35:26=31,378 
165165 FRASamuel DumoulinFRAAg2r La Mondiale05:51:50  +  00:35:26=31,378 
166166 NOREdvald Boasson HagenZAFDimension Data05:51:50  +  00:35:26=31,378 
167167 BELJasper StuyvenUSATrek - Segafredo05:51:50  +  00:35:26=31,378 
168168 GERAndré GreipelBELLotto Soudal05:51:50  +  00:35:26=31,378 
169169 GERPaul MartensNLDTeam Lotto NL - Jumbo05:51:50  +  00:35:26=31,378 
170170 ITAMatteo TosattoRUSTinkoff05:51:50  +  00:35:26=31,378 
171171 NZLGregory HendersonBELLotto Soudal05:51:50  +  00:35:26=31,378 
172172 FRAChristophe LaporteFRACofidis – Solutions Crédits05:51:50  +  00:35:26=31,378 
173173 IOMMark CavendishZAFDimension Data05:51:50  +  00:35:26=31,378 
174174 BELJulien VermoteBELEtixx - Quick Step05:51:50  +  00:35:26=31,378 
175175 BELGreg Van AvermaetUSABMC Racing Team05:51:50  +  00:35:26=31,378 
176176 SUIMichael AlbasiniAUSORICA BikeExchange05:51:50  +  00:35:26=31,378 
177177 NORVegard BreenFRAFortuneo - Vital Concept05:51:50  +  00:35:26=31,378 
178178 BELIljo KeisseBELEtixx - Quick Step05:51:50  +  00:35:26=31,378 
179179 ITAJacopo GuarnieriRUSTeam Katusha05:51:50  +  00:35:26=31,378 
180180 BRAMaximilano RichezeBELEtixx - Quick Step05:51:50  +  00:35:26=31,378 
181181 NORSondre Holst EngerCHEIAM Cycling05:51:50  +  00:35:26=31,378 
182182 BELSam BennettDEUBora-Argon 1805:51:50  +  00:35:26=31,378 
183183 ITADavide CimolaiITALampre-Merida05:51:50  +  00:35:26=31,378 
184184 NORAlexander KristoffRUSTeam Katusha05:51:50  +  00:35:26=31,378 
185185 AUSLeigh HowardCHEIAM Cycling05:51:50  +  00:35:26=31,378 
186186 ENGDaniel McLayFRAFortuneo - Vital Concept05:51:50  +  00:35:26=31,378 
187187 DENLars BakBELLotto Soudal05:51:50  +  00:35:26=31,378 
188188 AUTMarco HallerRUSTeam Katusha05:51:50  +  00:35:26=31,378 
189189 GERJohn DegenkolbDEUTeam Giant Alpecin05:51:50  +  00:35:26=31,378 
190190 AUTBernhard EiselZAFDimension Data05:51:50  +  00:35:26=31,378 
191191 ENGStephen CummingsZAFDimension Data05:51:50  +  00:35:26=31,378 
192192 NZLShane ArchboldDEUBora-Argon 1805:51:50  +  00:35:26=31,378 
193193 GERMarcel SiebergBELLotto Soudal05:51:50  +  00:35:26=31,378 

Withdrawls: 4
 
Rider
Team
Reason
31  ESPAlberto ContadorRUSTinkoffDid not finish
108  AUSMark RenshawZAFDimension DataDid not finish
123  FRAMatthieu LadagnousFRAFDJDid not finish
125  FRACédric PineauFRAFDJDid not finish
Todays birthdays.

1878  Jean Novo
1883  Jules Chabas
1890  Ange Aubry
1893  Roger Marye
1913  Paul Maye
1914  Lucien Vlaemynck
1915  Alphonse Antoine
1932  Rolf Graf
1953  Julio Rubiano
1959  Jos Haex
1959  Gerard Veldscholten
1963  Pablo Moreno
1964  Juan Castillo
1977  Iban Mayo
1994  Fernando Gaviria